Ho Ho Kus, New Jersey
Current Conditions -  °F | °C
As of 2:51 AM on Thursday 18 Dec 2014 (Local Time) from KTEB Reporting Station
Light Snow Light Snow  
Wind Chill: 33°   Ceiling: 5500
Heat Index: 40°   Visibility: 10mi
Dew Point: 25°   Wind: 10mph
Humidity: 55%   Direction: 320°NW
Pressure: 29.91"   Gusts: 20mph
Location:  41°N, 74.1°W
Report Text: KTEB 180751Z 32009G17KT 10SM -SN SCT045 BKN055 OVC065 04/M04 A2991 RMK AO2 SNB48 SLP128 P0000 T00441039
Loading
Personal Weather Stations






























Interactive Weather Map New forecast layout! Learn more

10-Day Weather Forecast

Advertisements
Track Severe Weather on mobile